sensor_id;sensor_type;location;lat;lon;timestamp;P1;durP1;ratioP1;P2;durP2;ratioP2
14052;SDS011;7101;51.600;7.310;2022-07-22T00:01:40;5.32;;;1.88;;
14052;SDS011;7101;51.600;7.310;2022-07-22T00:04:08;2.65;;;1.88;;
14052;SDS011;7101;51.600;7.310;2022-07-22T00:06:35;2.88;;;2.03;;
14052;SDS011;7101;51.600;7.310;2022-07-22T00:09:02;2.38;;;2.10;;
14052;SDS011;7101;51.600;7.310;2022-07-22T00:11:29;4.95;;;2.50;;
14052;SDS011;7101;51.600;7.310;2022-07-22T00:13:56;3.75;;;2.38;;
14052;SDS011;7101;51.600;7.310;2022-07-22T00:16:23;4.30;;;2.40;;
14052;SDS011;7101;51.600;7.310;2022-07-22T00:18:50;3.65;;;2.10;;
14052;SDS011;7101;51.600;7.310;2022-07-22T00:21:18;3.75;;;2.38;;
14052;SDS011;7101;51.600;7.310;2022-07-22T00:23:45;3.33;;;1.90;;
14052;SDS011;7101;51.600;7.310;2022-07-22T00:26:12;4.38;;;1.90;;
14052;SDS011;7101;51.600;7.310;2022-07-22T00:28:39;3.30;;;1.85;;
14052;SDS011;7101;51.600;7.310;2022-07-22T00:31:06;2.33;;;1.70;;
14052;SDS011;7101;51.600;7.310;2022-07-22T00:33:33;3.55;;;1.60;;
14052;SDS011;7101;51.600;7.310;2022-07-22T00:35:59;3.72;;;1.63;;
14052;SDS011;7101;51.600;7.310;2022-07-22T00:38:28;3.45;;;1.80;;
14052;SDS011;7101;51.600;7.310;2022-07-22T00:40:55;3.70;;;2.00;;
14052;SDS011;7101;51.600;7.310;2022-07-22T00:43:22;3.05;;;1.70;;
14052;SDS011;7101;51.600;7.310;2022-07-22T00:45:49;4.70;;;1.77;;
14052;SDS011;7101;51.600;7.310;2022-07-22T00:48:16;3.83;;;1.85;;
14052;SDS011;7101;51.600;7.310;2022-07-22T00:50:43;4.65;;;1.90;;
14052;SDS011;7101;51.600;7.310;2022-07-22T00:53:11;2.53;;;1.75;;
14052;SDS011;7101;51.600;7.310;2022-07-22T00:55:39;5.18;;;2.03;;
14052;SDS011;7101;51.600;7.310;2022-07-22T00:58:06;5.50;;;2.00;;
14052;SDS011;7101;51.600;7.310;2022-07-22T01:00:33;4.32;;;1.83;;
14052;SDS011;7101;51.600;7.310;2022-07-22T01:03:00;5.85;;;1.85;;
14052;SDS011;7101;51.600;7.310;2022-07-22T01:05:27;7.35;;;1.98;;
14052;SDS011;7101;51.600;7.310;2022-07-22T01:07:54;5.18;;;1.98;;
14052;SDS011;7101;51.600;7.310;2022-07-22T01:10:21;7.07;;;2.05;;
14052;SDS011;7101;51.600;7.310;2022-07-22T01:12:49;5.13;;;1.92;;
14052;SDS011;7101;51.600;7.310;2022-07-22T01:15:16;6.53;;;2.00;;
14052;SDS011;7101;51.600;7.310;2022-07-22T01:17:43;8.65;;;2.17;;
14052;SDS011;7101;51.600;7.310;2022-07-22T01:20:11;5.75;;;1.90;;
14052;SDS011;7101;51.600;7.310;2022-07-22T01:22:38;5.30;;;2.22;;
14052;SDS011;7101;51.600;7.310;2022-07-22T01:25:05;6.07;;;2.20;;
14052;SDS011;7101;51.600;7.310;2022-07-22T01:27:32;5.07;;;1.80;;
14052;SDS011;7101;51.600;7.310;2022-07-22T01:29:59;2.28;;;2.00;;
14052;SDS011;7101;51.600;7.310;2022-07-22T01:32:26;5.45;;;1.95;;
14052;SDS011;7101;51.600;7.310;2022-07-22T01:34:53;4.35;;;1.95;;
14052;SDS011;7101;51.600;7.310;2022-07-22T01:37:21;5.97;;;2.00;;
14052;SDS011;7101;51.600;7.310;2022-07-22T01:39:48;6.07;;;2.05;;
14052;SDS011;7101;51.600;7.310;2022-07-22T01:42:15;4.55;;;2.15;;
14052;SDS011;7101;51.600;7.310;2022-07-22T01:44:42;3.42;;;2.28;;
14052;SDS011;7101;51.600;7.310;2022-07-22T01:47:09;5.38;;;2.60;;
14052;SDS011;7101;51.600;7.310;2022-07-22T01:49:36;5.70;;;2.35;;
14052;SDS011;7101;51.600;7.310;2022-07-22T01:52:03;2.30;;;2.05;;
14052;SDS011;7101;51.600;7.310;2022-07-22T01:54:31;8.52;;;2.67;;
14052;SDS011;7101;51.600;7.310;2022-07-22T01:56:58;6.68;;;2.60;;
14052;SDS011;7101;51.600;7.310;2022-07-22T01:59:25;6.95;;;2.63;;
14052;SDS011;7101;51.600;7.310;2022-07-22T02:01:52;3.90;;;2.42;;
14052;SDS011;7101;51.600;7.310;2022-07-22T02:04:19;5.45;;;2.75;;
14052;SDS011;7101;51.600;7.310;2022-07-22T02:06:46;5.35;;;2.85;;
14052;SDS011;7101;51.600;7.310;2022-07-22T02:09:13;4.97;;;2.63;;
14052;SDS011;7101;51.600;7.310;2022-07-22T02:11:41;4.43;;;2.70;;
14052;SDS011;7101;51.600;7.310;2022-07-22T02:14:08;6.97;;;3.38;;
14052;SDS011;7101;51.600;7.310;2022-07-22T02:16:35;4.70;;;2.83;;
14052;SDS011;7101;51.600;7.310;2022-07-22T02:19:02;5.30;;;2.80;;
14052;SDS011;7101;51.600;7.310;2022-07-22T02:21:29;6.05;;;2.85;;
14052;SDS011;7101;51.600;7.310;2022-07-22T02:23:56;5.85;;;2.80;;
14052;SDS011;7101;51.600;7.310;2022-07-22T02:26:22;7.00;;;3.00;;
14052;SDS011;7101;51.600;7.310;2022-07-22T02:28:50;3.20;;;2.65;;
14052;SDS011;7101;51.600;7.310;2022-07-22T02:31:18;7.35;;;2.90;;
14052;SDS011;7101;51.600;7.310;2022-07-22T02:33:45;7.82;;;3.10;;
14052;SDS011;7101;51.600;7.310;2022-07-22T02:36:12;7.60;;;3.05;;
14052;SDS011;7101;51.600;7.310;2022-07-22T02:38:39;8.43;;;3.10;;
14052;SDS011;7101;51.600;7.310;2022-07-22T02:41:05;9.18;;;3.08;;
14052;SDS011;7101;51.600;7.310;2022-07-22T02:43:32;6.47;;;2.83;;
14052;SDS011;7101;51.600;7.310;2022-07-22T02:46:00;7.57;;;2.97;;
14052;SDS011;7101;51.600;7.310;2022-07-22T02:48:27;8.00;;;3.00;;
14052;SDS011;7101;51.600;7.310;2022-07-22T02:50:54;3.88;;;2.70;;
14052;SDS011;7101;51.600;7.310;2022-07-22T02:53:21;6.05;;;2.97;;
14052;SDS011;7101;51.600;7.310;2022-07-22T02:55:48;6.78;;;3.25;;
14052;SDS011;7101;51.600;7.310;2022-07-22T02:58:15;7.28;;;3.25;;
14052;SDS011;7101;51.600;7.310;2022-07-22T03:00:42;9.30;;;3.33;;
14052;SDS011;7101;51.600;7.310;2022-07-22T03:03:10;10.20;;;3.70;;
14052;SDS011;7101;51.600;7.310;2022-07-22T03:05:36;7.35;;;3.10;;
14052;SDS011;7101;51.600;7.310;2022-07-22T03:08:03;6.57;;;3.25;;
14052;SDS011;7101;51.600;7.310;2022-07-22T03:10:30;8.40;;;3.13;;
14052;SDS011;7101;51.600;7.310;2022-07-22T03:12:57;7.40;;;3.13;;
14052;SDS011;7101;51.600;7.310;2022-07-22T03:15:24;6.10;;;3.10;;
14052;SDS011;7101;51.600;7.310;2022-07-22T03:17:51;6.03;;;3.05;;
14052;SDS011;7101;51.600;7.310;2022-07-22T03:20:19;10.27;;;3.55;;
14052;SDS011;7101;51.600;7.310;2022-07-22T03:22:46;6.00;;;3.28;;
14052;SDS011;7101;51.600;7.310;2022-07-22T03:25:12;6.28;;;2.85;;
14052;SDS011;7101;51.600;7.310;2022-07-22T03:27:39;9.00;;;3.00;;
14052;SDS011;7101;51.600;7.310;2022-07-22T03:30:06;4.82;;;2.65;;
14052;SDS011;7101;51.600;7.310;2022-07-22T03:32:33;9.05;;;3.20;;
14052;SDS011;7101;51.600;7.310;2022-07-22T03:35:01;6.60;;;3.05;;
14052;SDS011;7101;51.600;7.310;2022-07-22T03:37:29;7.32;;;3.05;;
14052;SDS011;7101;51.600;7.310;2022-07-22T03:39:56;8.40;;;3.35;;
14052;SDS011;7101;51.600;7.310;2022-07-22T03:42:22;8.45;;;2.80;;
14052;SDS011;7101;51.600;7.310;2022-07-22T03:44:49;7.43;;;2.85;;
14052;SDS011;7101;51.600;7.310;2022-07-22T03:47:19;7.97;;;2.53;;
14052;SDS011;7101;51.600;7.310;2022-07-22T03:49:47;7.00;;;2.92;;
14052;SDS011;7101;51.600;7.310;2022-07-22T03:52:14;10.02;;;2.72;;
14052;SDS011;7101;51.600;7.310;2022-07-22T03:54:42;8.43;;;2.90;;
14052;SDS011;7101;51.600;7.310;2022-07-22T03:57:10;4.68;;;2.25;;
14052;SDS011;7101;51.600;7.310;2022-07-22T03:59:36;8.65;;;2.50;;
14052;SDS011;7101;51.600;7.310;2022-07-22T04:02:03;8.75;;;2.40;;
14052;SDS011;7101;51.600;7.310;2022-07-22T04:04:30;6.55;;;2.65;;
14052;SDS011;7101;51.600;7.310;2022-07-22T04:06:57;8.95;;;2.53;;
14052;SDS011;7101;51.600;7.310;2022-07-22T04:09:24;10.50;;;2.72;;
14052;SDS011;7101;51.600;7.310;2022-07-22T04:11:52;8.00;;;2.45;;
14052;SDS011;7101;51.600;7.310;2022-07-22T04:14:19;7.28;;;2.65;;
14052;SDS011;7101;51.600;7.310;2022-07-22T04:16:46;10.50;;;2.90;;
14052;SDS011;7101;51.600;7.310;2022-07-22T04:19:13;6.88;;;2.42;;
14052;SDS011;7101;51.600;7.310;2022-07-22T04:21:40;10.45;;;2.47;;
14052;SDS011;7101;51.600;7.310;2022-07-22T04:24:07;8.35;;;2.70;;
14052;SDS011;7101;51.600;7.310;2022-07-22T04:26:34;8.13;;;2.47;;
14052;SDS011;7101;51.600;7.310;2022-07-22T04:29:03;6.68;;;2.50;;
14052;SDS011;7101;51.600;7.310;2022-07-22T04:31:31;8.55;;;2.95;;
14052;SDS011;7101;51.600;7.310;2022-07-22T04:33:58;7.63;;;2.50;;
14052;SDS011;7101;51.600;7.310;2022-07-22T04:36:25;5.93;;;2.50;;
14052;SDS011;7101;51.600;7.310;2022-07-22T04:38:52;7.38;;;2.67;;
14052;SDS011;7101;51.600;7.310;2022-07-22T04:41:19;8.43;;;2.90;;
14052;SDS011;7101;51.600;7.310;2022-07-22T04:43:46;10.48;;;3.17;;
14052;SDS011;7101;51.600;7.310;2022-07-22T04:46:14;6.93;;;2.72;;
14052;SDS011;7101;51.600;7.310;2022-07-22T04:48:41;10.32;;;3.20;;
14052;SDS011;7101;51.600;7.310;2022-07-22T04:51:08;7.03;;;2.45;;
14052;SDS011;7101;51.600;7.310;2022-07-22T04:53:35;6.95;;;2.75;;
14052;SDS011;7101;51.600;7.310;2022-07-22T04:56:01;14.10;;;3.25;;
14052;SDS011;7101;51.600;7.310;2022-07-22T04:58:28;8.20;;;2.95;;
14052;SDS011;7101;51.600;7.310;2022-07-22T05:00:55;9.32;;;3.45;;
14052;SDS011;7101;51.600;7.310;2022-07-22T05:03:23;7.25;;;3.40;;
14052;SDS011;7101;51.600;7.310;2022-07-22T05:05:51;9.90;;;3.35;;
14052;SDS011;7101;51.600;7.310;2022-07-22T05:08:17;7.38;;;3.50;;
14052;SDS011;7101;51.600;7.310;2022-07-22T05:10:44;7.07;;;3.55;;
14052;SDS011;7101;51.600;7.310;2022-07-22T05:13:12;6.88;;;3.47;;
14052;SDS011;7101;51.600;7.310;2022-07-22T05:15:39;9.00;;;3.50;;
14052;SDS011;7101;51.600;7.310;2022-07-22T05:18:06;10.20;;;3.50;;
14052;SDS011;7101;51.600;7.310;2022-07-22T05:20:34;10.07;;;3.35;;
14052;SDS011;7101;51.600;7.310;2022-07-22T05:23:01;12.10;;;3.33;;
14052;SDS011;7101;51.600;7.310;2022-07-22T05:25:28;9.18;;;2.90;;
14052;SDS011;7101;51.600;7.310;2022-07-22T05:27:55;7.25;;;3.00;;
14052;SDS011;7101;51.600;7.310;2022-07-22T05:30:22;8.07;;;3.00;;
14052;SDS011;7101;51.600;7.310;2022-07-22T05:32:49;5.28;;;3.00;;
14052;SDS011;7101;51.600;7.310;2022-07-22T05:35:16;5.53;;;2.50;;
14052;SDS011;7101;51.600;7.310;2022-07-22T05:37:45;7.53;;;2.88;;
14052;SDS011;7101;51.600;7.310;2022-07-22T05:40:12;8.23;;;2.65;;
14052;SDS011;7101;51.600;7.310;2022-07-22T05:42:39;8.38;;;3.45;;
14052;SDS011;7101;51.600;7.310;2022-07-22T05:45:06;4.60;;;2.42;;
14052;SDS011;7101;51.600;7.310;2022-07-22T05:47:33;8.40;;;2.80;;
14052;SDS011;7101;51.600;7.310;2022-07-22T05:50:00;8.40;;;2.80;;
14052;SDS011;7101;51.600;7.310;2022-07-22T05:52:27;8.23;;;2.67;;
14052;SDS011;7101;51.600;7.310;2022-07-22T05:54:55;7.50;;;2.78;;
14052;SDS011;7101;51.600;7.310;2022-07-22T05:57:25;5.00;;;2.45;;
14052;SDS011;7101;51.600;7.310;2022-07-22T05:59:51;7.85;;;2.35;;
14052;SDS011;7101;51.600;7.310;2022-07-22T06:02:18;6.57;;;2.60;;
14052;SDS011;7101;51.600;7.310;2022-07-22T06:04:45;5.85;;;2.30;;
14052;SDS011;7101;51.600;7.310;2022-07-22T06:07:12;8.52;;;2.40;;
14052;SDS011;7101;51.600;7.310;2022-07-22T06:09:39;8.18;;;2.47;;
14052;SDS011;7101;51.600;7.310;2022-07-22T06:12:08;6.40;;;2.83;;
14052;SDS011;7101;51.600;7.310;2022-07-22T06:14:34;4.57;;;2.05;;
14052;SDS011;7101;51.600;7.310;2022-07-22T06:17:02;7.18;;;2.30;;
14052;SDS011;7101;51.600;7.310;2022-07-22T06:19:29;4.35;;;1.90;;
14052;SDS011;7101;51.600;7.310;2022-07-22T06:21:57;6.18;;;2.20;;
14052;SDS011;7101;51.600;7.310;2022-07-22T06:24:24;5.70;;;1.83;;
14052;SDS011;7101;51.600;7.310;2022-07-22T06:26:50;3.55;;;1.73;;
14052;SDS011;7101;51.600;7.310;2022-07-22T06:29:19;4.45;;;2.08;;
14052;SDS011;7101;51.600;7.310;2022-07-22T06:31:45;6.18;;;1.70;;
14052;SDS011;7101;51.600;7.310;2022-07-22T06:34:12;9.05;;;2.13;;
14052;SDS011;7101;51.600;7.310;2022-07-22T06:36:39;4.88;;;1.92;;
14052;SDS011;7101;51.600;7.310;2022-07-22T06:39:06;5.47;;;1.83;;
14052;SDS011;7101;51.600;7.310;2022-07-22T06:41:33;4.93;;;1.80;;
14052;SDS011;7101;51.600;7.310;2022-07-22T06:44:00;4.32;;;1.80;;
14052;SDS011;7101;51.600;7.310;2022-07-22T06:46:28;3.03;;;1.60;;
14052;SDS011;7101;51.600;7.310;2022-07-22T06:48:54;5.78;;;1.95;;
14052;SDS011;7101;51.600;7.310;2022-07-22T06:51:21;2.80;;;1.30;;
14052;SDS011;7101;51.600;7.310;2022-07-22T06:53:48;4.90;;;1.50;;
14052;SDS011;7101;51.600;7.310;2022-07-22T06:56:15;6.57;;;1.75;;
14052;SDS011;7101;51.600;7.310;2022-07-22T06:58:42;3.72;;;1.40;;
14052;SDS011;7101;51.600;7.310;2022-07-22T07:01:09;7.80;;;1.60;;
14052;SDS011;7101;51.600;7.310;2022-07-22T07:03:38;3.28;;;1.30;;
14052;SDS011;7101;51.600;7.310;2022-07-22T07:06:06;3.78;;;1.50;;
14052;SDS011;7101;51.600;7.310;2022-07-22T07:08:33;3.83;;;1.65;;
14052;SDS011;7101;51.600;7.310;2022-07-22T07:11:00;2.97;;;1.30;;
14052;SDS011;7101;51.600;7.310;2022-07-22T07:13:27;6.97;;;1.60;;
14052;SDS011;7101;51.600;7.310;2022-07-22T07:15:54;3.47;;;1.58;;
14052;SDS011;7101;51.600;7.310;2022-07-22T07:18:20;3.90;;;1.48;;
14052;SDS011;7101;51.600;7.310;2022-07-22T07:20:49;2.20;;;1.25;;
14052;SDS011;7101;51.600;7.310;2022-07-22T07:23:16;5.40;;;1.45;;
14052;SDS011;7101;51.600;7.310;2022-07-22T07:25:42;3.45;;;1.75;;
14052;SDS011;7101;51.600;7.310;2022-07-22T07:28:09;3.67;;;1.42;;
14052;SDS011;7101;51.600;7.310;2022-07-22T07:30:36;3.30;;;1.52;;
14052;SDS011;7101;51.600;7.310;2022-07-22T07:33:03;2.90;;;1.50;;
14052;SDS011;7101;51.600;7.310;2022-07-22T07:35:30;3.17;;;1.50;;
14052;SDS011;7101;51.600;7.310;2022-07-22T07:37:58;4.03;;;1.50;;
14052;SDS011;7101;51.600;7.310;2022-07-22T07:40:25;4.95;;;1.80;;
14052;SDS011;7101;51.600;7.310;2022-07-22T07:42:51;4.30;;;1.60;;
14052;SDS011;7101;51.600;7.310;2022-07-22T07:45:18;2.92;;;1.50;;
14052;SDS011;7101;51.600;7.310;2022-07-22T07:47:45;4.80;;;1.80;;
14052;SDS011;7101;51.600;7.310;2022-07-22T07:50:12;2.85;;;1.50;;
14052;SDS011;7101;51.600;7.310;2022-07-22T07:52:40;4.78;;;1.77;;
14052;SDS011;7101;51.600;7.310;2022-07-22T07:55:09;2.97;;;1.63;;
14052;SDS011;7101;51.600;7.310;2022-07-22T07:57:37;2.67;;;1.55;;
14052;SDS011;7101;51.600;7.310;2022-07-22T08:00:05;4.50;;;1.48;;
14052;SDS011;7101;51.600;7.310;2022-07-22T08:02:35;2.78;;;1.50;;
14052;SDS011;7101;51.600;7.310;2022-07-22T08:05:02;5.72;;;1.73;;
14052;SDS011;7101;51.600;7.310;2022-07-22T08:07:29;3.22;;;1.67;;
14052;SDS011;7101;51.600;7.310;2022-07-22T08:09:56;3.55;;;1.63;;
14052;SDS011;7101;51.600;7.310;2022-07-22T08:12:24;4.47;;;1.65;;
14052;SDS011;7101;51.600;7.310;2022-07-22T08:14:51;3.28;;;1.92;;
14052;SDS011;7101;51.600;7.310;2022-07-22T08:17:17;2.75;;;1.70;;
14052;SDS011;7101;51.600;7.310;2022-07-22T08:19:44;3.05;;;1.70;;
14052;SDS011;7101;51.600;7.310;2022-07-22T08:22:11;2.67;;;1.75;;
14052;SDS011;7101;51.600;7.310;2022-07-22T08:24:38;2.40;;;1.60;;
14052;SDS011;7101;51.600;7.310;2022-07-22T08:27:05;3.13;;;1.60;;
14052;SDS011;7101;51.600;7.310;2022-07-22T08:29:33;4.18;;;1.50;;
14052;SDS011;7101;51.600;7.310;2022-07-22T08:32:00;2.08;;;1.60;;
14052;SDS011;7101;51.600;7.310;2022-07-22T08:34:27;2.75;;;1.95;;
14052;SDS011;7101;51.600;7.310;2022-07-22T08:36:54;2.55;;;1.70;;
14052;SDS011;7101;51.600;7.310;2022-07-22T08:39:21;4.25;;;1.60;;
14052;SDS011;7101;51.600;7.310;2022-07-22T08:41:48;2.40;;;1.70;;
14052;SDS011;7101;51.600;7.310;2022-07-22T08:44:15;4.07;;;2.00;;
14052;SDS011;7101;51.600;7.310;2022-07-22T08:46:44;3.22;;;2.22;;
14052;SDS011;7101;51.600;7.310;2022-07-22T08:49:12;5.03;;;2.30;;
14052;SDS011;7101;51.600;7.310;2022-07-22T08:51:39;3.47;;;2.30;;
14052;SDS011;7101;51.600;7.310;2022-07-22T08:54:06;5.93;;;2.78;;
14052;SDS011;7101;51.600;7.310;2022-07-22T08:56:33;4.35;;;2.47;;
14052;SDS011;7101;51.600;7.310;2022-07-22T08:59:03;5.35;;;4.03;;
14052;SDS011;7101;51.600;7.310;2022-07-22T09:01:30;6.30;;;4.00;;
14052;SDS011;7101;51.600;7.310;2022-07-22T09:03:58;5.78;;;4.60;;
14052;SDS011;7101;51.600;7.310;2022-07-22T09:06:26;5.25;;;3.80;;
14052;SDS011;7101;51.600;7.310;2022-07-22T09:08:59;3.70;;;3.05;;
14052;SDS011;7101;51.600;7.310;2022-07-22T09:11:27;5.00;;;3.38;;
14052;SDS011;7101;51.600;7.310;2022-07-22T09:13:56;3.45;;;2.28;;
14052;SDS011;7101;51.600;7.310;2022-07-22T09:16:40;5.68;;;2.38;;
14052;SDS011;7101;51.600;7.310;2022-07-22T09:19:10;3.13;;;2.40;;
14052;SDS011;7101;51.600;7.310;2022-07-22T09:21:37;3.83;;;2.80;;
14052;SDS011;7101;51.600;7.310;2022-07-22T09:24:06;6.78;;;3.35;;
14052;SDS011;7101;51.600;7.310;2022-07-22T09:26:34;4.88;;;2.67;;
14052;SDS011;7101;51.600;7.310;2022-07-22T09:29:02;2.90;;;2.17;;
14052;SDS011;7101;51.600;7.310;2022-07-22T09:31:30;3.75;;;2.40;;
14052;SDS011;7101;51.600;7.310;2022-07-22T09:33:58;4.22;;;2.45;;
14052;SDS011;7101;51.600;7.310;2022-07-22T09:36:27;4.88;;;2.70;;
14052;SDS011;7101;51.600;7.310;2022-07-22T09:38:53;3.85;;;2.80;;
14052;SDS011;7101;51.600;7.310;2022-07-22T09:41:20;4.35;;;2.50;;
14052;SDS011;7101;51.600;7.310;2022-07-22T09:43:48;7.05;;;2.80;;
14052;SDS011;7101;51.600;7.310;2022-07-22T09:46:16;4.85;;;2.22;;
14052;SDS011;7101;51.600;7.310;2022-07-22T09:48:43;4.55;;;2.13;;
14052;SDS011;7101;51.600;7.310;2022-07-22T09:51:10;3.30;;;2.00;;
14052;SDS011;7101;51.600;7.310;2022-07-22T09:53:38;3.00;;;1.80;;
14052;SDS011;7101;51.600;7.310;2022-07-22T09:56:05;4.63;;;2.25;;
14052;SDS011;7101;51.600;7.310;2022-07-22T09:58:33;3.42;;;1.90;;
14052;SDS011;7101;51.600;7.310;2022-07-22T10:01:03;4.93;;;2.50;;
14052;SDS011;7101;51.600;7.310;2022-07-22T10:03:31;4.10;;;2.85;;
14052;SDS011;7101;51.600;7.310;2022-07-22T10:06:02;4.35;;;3.15;;
14052;SDS011;7101;51.600;7.310;2022-07-22T10:08:30;5.32;;;3.80;;
14052;SDS011;7101;51.600;7.310;2022-07-22T10:11:00;5.63;;;4.15;;
14052;SDS011;7101;51.600;7.310;2022-07-22T10:13:29;4.88;;;4.13;;
14052;SDS011;7101;51.600;7.310;2022-07-22T10:15:58;5.80;;;4.82;;
14052;SDS011;7101;51.600;7.310;2022-07-22T10:18:25;6.63;;;4.93;;
14052;SDS011;7101;51.600;7.310;2022-07-22T10:21:01;6.20;;;5.07;;
14052;SDS011;7101;51.600;7.310;2022-07-22T10:23:29;4.93;;;3.70;;
14052;SDS011;7101;51.600;7.310;2022-07-22T10:25:56;6.30;;;3.30;;
14052;SDS011;7101;51.600;7.310;2022-07-22T10:28:26;7.38;;;3.70;;
14052;SDS011;7101;51.600;7.310;2022-07-22T10:30:54;5.90;;;4.07;;
14052;SDS011;7101;51.600;7.310;2022-07-22T10:33:43;6.38;;;3.78;;
14052;SDS011;7101;51.600;7.310;2022-07-22T10:36:10;6.72;;;4.40;;
14052;SDS011;7101;51.600;7.310;2022-07-22T10:38:40;7.22;;;4.47;;
14052;SDS011;7101;51.600;7.310;2022-07-22T10:41:30;7.53;;;4.28;;
14052;SDS011;7101;51.600;7.310;2022-07-22T10:44:01;6.80;;;4.95;;
14052;SDS011;7101;51.600;7.310;2022-07-22T10:49:16;6.97;;;4.25;;
14052;SDS011;7101;51.600;7.310;2022-07-22T10:57:37;12.63;;;6.60;;
14052;SDS011;7101;51.600;7.310;2022-07-22T11:00:06;8.63;;;6.45;;
14052;SDS011;7101;51.600;7.310;2022-07-22T11:02:33;7.93;;;6.32;;
14052;SDS011;7101;51.600;7.310;2022-07-22T11:05:03;7.15;;;6.13;;
14052;SDS011;7101;51.600;7.310;2022-07-22T11:07:31;7.57;;;5.60;;
14052;SDS011;7101;51.600;7.310;2022-07-22T11:10:08;8.88;;;6.30;;
14052;SDS011;7101;51.600;7.310;2022-07-22T11:12:36;8.18;;;5.97;;
14052;SDS011;7101;51.600;7.310;2022-07-22T11:15:03;6.32;;;5.55;;
14052;SDS011;7101;51.600;7.310;2022-07-22T11:17:32;8.43;;;6.30;;
14052;SDS011;7101;51.600;7.310;2022-07-22T11:20:00;7.28;;;6.00;;
14052;SDS011;7101;51.600;7.310;2022-07-22T11:22:27;9.02;;;5.93;;
14052;SDS011;7101;51.600;7.310;2022-07-22T11:24:54;7.13;;;6.43;;
14052;SDS011;7101;51.600;7.310;2022-07-22T11:27:23;8.73;;;6.07;;
14052;SDS011;7101;51.600;7.310;2022-07-22T11:29:51;8.65;;;6.13;;
14052;SDS011;7101;51.600;7.310;2022-07-22T11:32:20;8.25;;;6.35;;
14052;SDS011;7101;51.600;7.310;2022-07-22T11:34:49;7.80;;;6.15;;
14052;SDS011;7101;51.600;7.310;2022-07-22T11:37:16;10.52;;;6.00;;
14052;SDS011;7101;51.600;7.310;2022-07-22T11:39:44;9.35;;;6.13;;
14052;SDS011;7101;51.600;7.310;2022-07-22T11:42:12;9.52;;;6.70;;
14052;SDS011;7101;51.600;7.310;2022-07-22T11:44:39;13.82;;;7.35;;
14052;SDS011;7101;51.600;7.310;2022-07-22T11:47:07;10.02;;;7.13;;
14052;SDS011;7101;51.600;7.310;2022-07-22T11:49:36;11.27;;;7.72;;
14052;SDS011;7101;51.600;7.310;2022-07-22T11:52:05;9.88;;;7.65;;
14052;SDS011;7101;51.600;7.310;2022-07-22T11:54:37;11.23;;;7.50;;
14052;SDS011;7101;51.600;7.310;2022-07-22T11:57:05;10.70;;;7.93;;
14052;SDS011;7101;51.600;7.310;2022-07-22T11:59:33;9.80;;;7.75;;
14052;SDS011;7101;51.600;7.310;2022-07-22T12:02:00;10.02;;;7.32;;
14052;SDS011;7101;51.600;7.310;2022-07-22T12:04:29;11.00;;;7.47;;
14052;SDS011;7101;51.600;7.310;2022-07-22T12:06:59;9.05;;;7.15;;
14052;SDS011;7101;51.600;7.310;2022-07-22T12:09:28;9.48;;;7.40;;
14052;SDS011;7101;51.600;7.310;2022-07-22T12:11:57;8.63;;;7.15;;
14052;SDS011;7101;51.600;7.310;2022-07-22T12:14:25;12.27;;;7.43;;
14052;SDS011;7101;51.600;7.310;2022-07-22T12:16:54;13.40;;;7.82;;
14052;SDS011;7101;51.600;7.310;2022-07-22T12:19:23;9.10;;;7.18;;
14052;SDS011;7101;51.600;7.310;2022-07-22T12:21:55;10.13;;;7.30;;
14052;SDS011;7101;51.600;7.310;2022-07-22T12:24:31;10.52;;;7.97;;
14052;SDS011;7101;51.600;7.310;2022-07-22T12:26:59;10.95;;;8.10;;
14052;SDS011;7101;51.600;7.310;2022-07-22T12:29:28;10.75;;;7.55;;
14052;SDS011;7101;51.600;7.310;2022-07-22T12:31:57;12.02;;;9.13;;
14052;SDS011;7101;51.600;7.310;2022-07-22T12:34:29;11.88;;;8.27;;
14052;SDS011;7101;51.600;7.310;2022-07-22T12:37:00;13.18;;;8.98;;
14052;SDS011;7101;51.600;7.310;2022-07-22T12:39:38;11.98;;;9.45;;
14052;SDS011;7101;51.600;7.310;2022-07-22T12:42:15;12.00;;;9.00;;
14052;SDS011;7101;51.600;7.310;2022-07-22T12:44:49;11.93;;;8.68;;
14052;SDS011;7101;51.600;7.310;2022-07-22T12:47:17;12.07;;;9.20;;
14052;SDS011;7101;51.600;7.310;2022-07-22T12:50:14;13.27;;;8.20;;
14052;SDS011;7101;51.600;7.310;2022-07-22T12:52:49;12.82;;;8.45;;
14052;SDS011;7101;51.600;7.310;2022-07-22T12:55:18;12.45;;;8.57;;
14052;SDS011;7101;51.600;7.310;2022-07-22T12:57:45;11.85;;;9.85;;
14052;SDS011;7101;51.600;7.310;2022-07-22T13:00:18;10.98;;;8.50;;
14052;SDS011;7101;51.600;7.310;2022-07-22T13:02:46;11.60;;;9.48;;
14052;SDS011;7101;51.600;7.310;2022-07-22T13:05:13;10.93;;;9.40;;
14052;SDS011;7101;51.600;7.310;2022-07-22T13:07:41;13.98;;;9.70;;
14052;SDS011;7101;51.600;7.310;2022-07-22T13:10:08;11.48;;;9.30;;
14052;SDS011;7101;51.600;7.310;2022-07-22T13:12:37;11.85;;;9.73;;
14052;SDS011;7101;51.600;7.310;2022-07-22T13:15:05;14.20;;;9.70;;
14052;SDS011;7101;51.600;7.310;2022-07-22T13:17:33;11.48;;;8.63;;
14052;SDS011;7101;51.600;7.310;2022-07-22T13:20:00;12.32;;;8.93;;
14052;SDS011;7101;51.600;7.310;2022-07-22T13:22:30;15.48;;;10.25;;
14052;SDS011;7101;51.600;7.310;2022-07-22T13:24:56;15.07;;;9.20;;
14052;SDS011;7101;51.600;7.310;2022-07-22T13:27:23;19.85;;;10.98;;
14052;SDS011;7101;51.600;7.310;2022-07-22T13:29:52;12.75;;;9.50;;
14052;SDS011;7101;51.600;7.310;2022-07-22T13:32:19;12.00;;;8.32;;
14052;SDS011;7101;51.600;7.310;2022-07-22T13:34:46;11.13;;;8.73;;
14052;SDS011;7101;51.600;7.310;2022-07-22T13:37:12;10.55;;;8.90;;
14052;SDS011;7101;51.600;7.310;2022-07-22T13:39:39;15.13;;;8.57;;
14052;SDS011;7101;51.600;7.310;2022-07-22T13:42:07;10.13;;;7.97;;
14052;SDS011;7101;51.600;7.310;2022-07-22T13:44:34;9.65;;;8.15;;
14052;SDS011;7101;51.600;7.310;2022-07-22T13:47:03;11.30;;;7.95;;
14052;SDS011;7101;51.600;7.310;2022-07-22T13:49:32;11.30;;;8.02;;
14052;SDS011;7101;51.600;7.310;2022-07-22T13:51:59;9.80;;;8.80;;
14052;SDS011;7101;51.600;7.310;2022-07-22T13:54:26;9.77;;;8.77;;
14052;SDS011;7101;51.600;7.310;2022-07-22T13:56:53;12.10;;;9.13;;
14052;SDS011;7101;51.600;7.310;2022-07-22T13:59:20;11.32;;;8.43;;
14052;SDS011;7101;51.600;7.310;2022-07-22T14:01:53;9.48;;;8.48;;
14052;SDS011;7101;51.600;7.310;2022-07-22T14:04:22;8.68;;;7.78;;
14052;SDS011;7101;51.600;7.310;2022-07-22T14:06:49;11.07;;;7.35;;
14052;SDS011;7101;51.600;7.310;2022-07-22T14:09:16;8.90;;;7.40;;
14052;SDS011;7101;51.600;7.310;2022-07-22T14:11:42;10.43;;;7.85;;
14052;SDS011;7101;51.600;7.310;2022-07-22T14:14:09;8.82;;;7.80;;
14052;SDS011;7101;51.600;7.310;2022-07-22T14:16:36;8.98;;;7.82;;
14052;SDS011;7101;51.600;7.310;2022-07-22T14:19:04;10.02;;;9.02;;
14052;SDS011;7101;51.600;7.310;2022-07-22T14:21:34;9.60;;;8.50;;
14052;SDS011;7101;51.600;7.310;2022-07-22T14:24:03;13.60;;;8.52;;
14052;SDS011;7101;51.600;7.310;2022-07-22T14:26:31;9.48;;;7.63;;
14052;SDS011;7101;51.600;7.310;2022-07-22T14:28:59;11.18;;;8.15;;
14052;SDS011;7101;51.600;7.310;2022-07-22T14:31:26;9.90;;;8.10;;
14052;SDS011;7101;51.600;7.310;2022-07-22T14:33:53;8.93;;;8.02;;
14052;SDS011;7101;51.600;7.310;2022-07-22T14:36:21;9.43;;;8.23;;
14052;SDS011;7101;51.600;7.310;2022-07-22T14:38:49;9.63;;;7.72;;
14052;SDS011;7101;51.600;7.310;2022-07-22T14:41:16;9.38;;;7.35;;
14052;SDS011;7101;51.600;7.310;2022-07-22T14:43:43;11.77;;;8.40;;
14052;SDS011;7101;51.600;7.310;2022-07-22T14:46:09;8.77;;;7.88;;
14052;SDS011;7101;51.600;7.310;2022-07-22T14:48:36;10.57;;;7.60;;
14052;SDS011;7101;51.600;7.310;2022-07-22T14:51:04;10.63;;;8.38;;
14052;SDS011;7101;51.600;7.310;2022-07-22T14:53:31;9.02;;;7.25;;
14052;SDS011;7101;51.600;7.310;2022-07-22T14:56:00;9.98;;;7.15;;
14052;SDS011;7101;51.600;7.310;2022-07-22T14:58:26;8.15;;;5.95;;
14052;SDS011;7101;51.600;7.310;2022-07-22T15:00:53;7.68;;;6.75;;
14052;SDS011;7101;51.600;7.310;2022-07-22T15:03:20;9.20;;;6.60;;
14052;SDS011;7101;51.600;7.310;2022-07-22T15:05:47;8.05;;;6.97;;
14052;SDS011;7101;51.600;7.310;2022-07-22T15:08:14;8.30;;;6.45;;
14052;SDS011;7101;51.600;7.310;2022-07-22T15:10:43;8.32;;;6.25;;